sensor_id;sensor_type;location;lat;lon;timestamp;temperature;humidity
11538;DHT22;50159;49.426;11.182;2023-03-04T00:02:25;-0.90;99.90
11538;DHT22;50159;49.426;11.182;2023-03-04T00:04:52;-0.90;99.90
11538;DHT22;50159;49.426;11.182;2023-03-04T00:07:19;-0.90;99.90
11538;DHT22;50159;49.426;11.182;2023-03-04T00:09:46;-0.90;99.90
11538;DHT22;50159;49.426;11.182;2023-03-04T00:12:13;-0.90;99.90
11538;DHT22;50159;49.426;11.182;2023-03-04T00:14:40;-1.00;99.90
11538;DHT22;50159;49.426;11.182;2023-03-04T00:17:07;-1.00;99.90
11538;DHT22;50159;49.426;11.182;2023-03-04T00:19:34;-1.10;99.90
11538;DHT22;50159;49.426;11.182;2023-03-04T00:22:02;-1.10;99.90
11538;DHT22;50159;49.426;11.182;2023-03-04T00:24:30;-1.10;99.90
11538;DHT22;50159;49.426;11.182;2023-03-04T00:26:57;-1.10;99.90
11538;DHT22;50159;49.426;11.182;2023-03-04T00:29:24;-1.10;99.90
11538;DHT22;50159;49.426;11.182;2023-03-04T00:31:51;-1.10;99.90
11538;DHT22;50159;49.426;11.182;2023-03-04T00:34:19;-1.20;99.90
11538;DHT22;50159;49.426;11.182;2023-03-04T00:36:46;-1.20;99.90
11538;DHT22;50159;49.426;11.182;2023-03-04T00:39:13;-1.20;99.90
11538;DHT22;50159;49.426;11.182;2023-03-04T00:41:40;-1.30;99.90
11538;DHT22;50159;49.426;11.182;2023-03-04T00:44:07;-1.30;99.90
11538;DHT22;50159;49.426;11.182;2023-03-04T00:46:34;-1.40;99.90
11538;DHT22;50159;49.426;11.182;2023-03-04T00:49:00;-1.40;99.90
11538;DHT22;50159;49.426;11.182;2023-03-04T00:51:27;-1.40;99.90
11538;DHT22;50159;49.426;11.182;2023-03-04T00:53:54;-1.40;99.90
11538;DHT22;50159;49.426;11.182;2023-03-04T00:56:21;-1.50;99.90
11538;DHT22;50159;49.426;11.182;2023-03-04T00:58:48;-1.50;99.90
11538;DHT22;50159;49.426;11.182;2023-03-04T01:01:14;-1.50;99.90
11538;DHT22;50159;49.426;11.182;2023-03-04T01:03:41;-1.50;99.90
11538;DHT22;50159;49.426;11.182;2023-03-04T01:06:08;-1.50;99.90
11538;DHT22;50159;49.426;11.182;2023-03-04T01:08:36;-1.50;99.90
11538;DHT22;50159;49.426;11.182;2023-03-04T01:11:04;-1.60;99.90
11538;DHT22;50159;49.426;11.182;2023-03-04T01:13:31;-1.60;99.90
11538;DHT22;50159;49.426;11.182;2023-03-04T01:15:58;-1.60;99.90
11538;DHT22;50159;49.426;11.182;2023-03-04T01:18:25;-1.70;99.90
11538;DHT22;50159;49.426;11.182;2023-03-04T01:20:52;-1.70;99.90
11538;DHT22;50159;49.426;11.182;2023-03-04T01:23:19;-1.70;99.90
11538;DHT22;50159;49.426;11.182;2023-03-04T01:25:46;-1.70;99.90
11538;DHT22;50159;49.426;11.182;2023-03-04T01:28:13;-1.80;99.90
11538;DHT22;50159;49.426;11.182;2023-03-04T01:30:40;-1.80;99.90
11538;DHT22;50159;49.426;11.182;2023-03-04T01:33:07;-1.80;99.90
11538;DHT22;50159;49.426;11.182;2023-03-04T01:35:34;-1.80;99.90
11538;DHT22;50159;49.426;11.182;2023-03-04T01:38:01;-1.80;99.90
11538;DHT22;50159;49.426;11.182;2023-03-04T01:40:27;-1.80;99.90
11538;DHT22;50159;49.426;11.182;2023-03-04T01:42:55;-1.80;99.90
11538;DHT22;50159;49.426;11.182;2023-03-04T01:45:21;-1.90;99.90
11538;DHT22;50159;49.426;11.182;2023-03-04T01:47:49;-1.90;99.90
11538;DHT22;50159;49.426;11.182;2023-03-04T01:50:26;-1.90;99.90
11538;DHT22;50159;49.426;11.182;2023-03-04T01:52:56;-2.00;99.90
11538;DHT22;50159;49.426;11.182;2023-03-04T01:55:23;-2.00;99.90
11538;DHT22;50159;49.426;11.182;2023-03-04T01:57:51;-2.00;99.90
11538;DHT22;50159;49.426;11.182;2023-03-04T02:00:33;-2.00;99.90
11538;DHT22;50159;49.426;11.182;2023-03-04T02:03:08;-2.10;99.90
11538;DHT22;50159;49.426;11.182;2023-03-04T02:05:41;-2.10;99.90
11538;DHT22;50159;49.426;11.182;2023-03-04T02:08:11;-2.10;99.90
11538;DHT22;50159;49.426;11.182;2023-03-04T02:10:41;-2.10;99.90
11538;DHT22;50159;49.426;11.182;2023-03-04T02:13:09;-2.10;99.90
11538;DHT22;50159;49.426;11.182;2023-03-04T02:15:37;-2.20;99.90
11538;DHT22;50159;49.426;11.182;2023-03-04T02:21:10;-2.20;99.90
11538;DHT22;50159;49.426;11.182;2023-03-04T02:26:35;-2.30;99.90
11538;DHT22;50159;49.426;11.182;2023-03-04T02:29:02;-2.30;99.90
11538;DHT22;50159;49.426;11.182;2023-03-04T02:31:45;-2.30;99.90
11538;DHT22;50159;49.426;11.182;2023-03-04T02:34:33;-2.30;99.90
11538;DHT22;50159;49.426;11.182;2023-03-04T02:37:02;-2.40;99.90
11538;DHT22;50159;49.426;11.182;2023-03-04T02:39:35;-2.40;99.90
11538;DHT22;50159;49.426;11.182;2023-03-04T02:42:06;-2.40;99.90
11538;DHT22;50159;49.426;11.182;2023-03-04T02:44:36;-2.50;99.90
11538;DHT22;50159;49.426;11.182;2023-03-04T02:47:07;-2.50;99.90
11538;DHT22;50159;49.426;11.182;2023-03-04T02:49:38;-2.50;99.90
11538;DHT22;50159;49.426;11.182;2023-03-04T02:52:13;-2.60;99.90
11538;DHT22;50159;49.426;11.182;2023-03-04T02:54:44;-2.60;99.90
11538;DHT22;50159;49.426;11.182;2023-03-04T02:57:12;-2.60;99.90
11538;DHT22;50159;49.426;11.182;2023-03-04T02:59:41;-2.60;99.90
11538;DHT22;50159;49.426;11.182;2023-03-04T03:02:08;-2.70;99.90
11538;DHT22;50159;49.426;11.182;2023-03-04T03:04:37;-2.60;99.90
11538;DHT22;50159;49.426;11.182;2023-03-04T03:07:05;-2.70;99.90
11538;DHT22;50159;49.426;11.182;2023-03-04T03:09:32;-2.70;99.90
11538;DHT22;50159;49.426;11.182;2023-03-04T03:11:59;-2.70;99.90
11538;DHT22;50159;49.426;11.182;2023-03-04T03:14:26;-2.70;99.90
11538;DHT22;50159;49.426;11.182;2023-03-04T03:16:53;-2.80;99.90
11538;DHT22;50159;49.426;11.182;2023-03-04T03:19:19;-2.80;99.90
11538;DHT22;50159;49.426;11.182;2023-03-04T03:21:46;-2.80;99.90
11538;DHT22;50159;49.426;11.182;2023-03-04T03:24:13;-2.80;99.90
11538;DHT22;50159;49.426;11.182;2023-03-04T03:26:40;-2.80;99.90
11538;DHT22;50159;49.426;11.182;2023-03-04T03:29:07;-2.90;99.90
11538;DHT22;50159;49.426;11.182;2023-03-04T03:31:34;-2.80;99.90
11538;DHT22;50159;49.426;11.182;2023-03-04T03:34:00;-2.80;99.90
11538;DHT22;50159;49.426;11.182;2023-03-04T03:36:27;-2.90;99.90
11538;DHT22;50159;49.426;11.182;2023-03-04T03:38:54;-2.90;99.90
11538;DHT22;50159;49.426;11.182;2023-03-04T03:41:21;-2.90;99.90
11538;DHT22;50159;49.426;11.182;2023-03-04T03:43:47;-2.90;99.90
11538;DHT22;50159;49.426;11.182;2023-03-04T03:46:14;-2.90;99.90
11538;DHT22;50159;49.426;11.182;2023-03-04T03:48:41;-2.90;99.90
11538;DHT22;50159;49.426;11.182;2023-03-04T03:51:08;-2.90;99.90
11538;DHT22;50159;49.426;11.182;2023-03-04T03:53:34;-2.90;99.90
11538;DHT22;50159;49.426;11.182;2023-03-04T03:56:02;-2.80;99.90
11538;DHT22;50159;49.426;11.182;2023-03-04T03:58:29;-2.70;99.90
11538;DHT22;50159;49.426;11.182;2023-03-04T04:00:56;-2.70;99.90
11538;DHT22;50159;49.426;11.182;2023-03-04T04:03:24;-2.50;99.90
11538;DHT22;50159;49.426;11.182;2023-03-04T04:05:51;-2.40;99.90
11538;DHT22;50159;49.426;11.182;2023-03-04T04:08:18;-2.30;99.90
11538;DHT22;50159;49.426;11.182;2023-03-04T04:10:45;-2.20;99.90
11538;DHT22;50159;49.426;11.182;2023-03-04T04:13:12;-2.20;99.90
11538;DHT22;50159;49.426;11.182;2023-03-04T04:15:39;-2.20;99.90
11538;DHT22;50159;49.426;11.182;2023-03-04T04:18:06;-2.10;99.90
11538;DHT22;50159;49.426;11.182;2023-03-04T04:20:33;-2.00;99.90
11538;DHT22;50159;49.426;11.182;2023-03-04T04:23:01;-2.00;99.90
11538;DHT22;50159;49.426;11.182;2023-03-04T04:25:29;-1.90;99.90
11538;DHT22;50159;49.426;11.182;2023-03-04T04:27:55;-1.90;99.90
11538;DHT22;50159;49.426;11.182;2023-03-04T04:30:22;-1.80;99.90
11538;DHT22;50159;49.426;11.182;2023-03-04T04:32:50;-1.80;99.90
11538;DHT22;50159;49.426;11.182;2023-03-04T04:35:17;-1.80;99.90
11538;DHT22;50159;49.426;11.182;2023-03-04T04:37:44;-1.80;99.90
11538;DHT22;50159;49.426;11.182;2023-03-04T04:40:11;-1.70;99.90
11538;DHT22;50159;49.426;11.182;2023-03-04T04:42:38;-1.70;99.90
11538;DHT22;50159;49.426;11.182;2023-03-04T04:45:05;-1.70;99.90
11538;DHT22;50159;49.426;11.182;2023-03-04T04:47:32;-1.60;99.90
11538;DHT22;50159;49.426;11.182;2023-03-04T04:49:59;-1.60;99.90
11538;DHT22;50159;49.426;11.182;2023-03-04T04:52:26;-1.60;99.90
11538;DHT22;50159;49.426;11.182;2023-03-04T04:54:53;-1.60;99.90
11538;DHT22;50159;49.426;11.182;2023-03-04T04:57:20;-1.60;99.90
11538;DHT22;50159;49.426;11.182;2023-03-04T04:59:47;-1.50;99.90
11538;DHT22;50159;49.426;11.182;2023-03-04T05:02:14;-1.60;99.90
11538;DHT22;50159;49.426;11.182;2023-03-04T05:04:40;-1.60;99.90
11538;DHT22;50159;49.426;11.182;2023-03-04T05:07:07;-1.60;99.90
11538;DHT22;50159;49.426;11.182;2023-03-04T05:09:34;-1.60;99.90
11538;DHT22;50159;49.426;11.182;2023-03-04T05:12:01;-1.60;99.90
11538;DHT22;50159;49.426;11.182;2023-03-04T05:14:27;-1.60;99.90
11538;DHT22;50159;49.426;11.182;2023-03-04T05:16:54;-1.50;99.90
11538;DHT22;50159;49.426;11.182;2023-03-04T05:19:21;-1.50;99.90
11538;DHT22;50159;49.426;11.182;2023-03-04T05:21:48;-1.40;99.90
11538;DHT22;50159;49.426;11.182;2023-03-04T05:24:15;-1.40;99.90
11538;DHT22;50159;49.426;11.182;2023-03-04T05:26:42;-1.40;99.90
11538;DHT22;50159;49.426;11.182;2023-03-04T05:29:08;-1.40;99.90
11538;DHT22;50159;49.426;11.182;2023-03-04T05:31:35;-1.40;99.90
11538;DHT22;50159;49.426;11.182;2023-03-04T05:34:02;-1.40;99.90
11538;DHT22;50159;49.426;11.182;2023-03-04T05:36:29;-1.40;99.90
11538;DHT22;50159;49.426;11.182;2023-03-04T05:38:56;-1.30;99.90
11538;DHT22;50159;49.426;11.182;2023-03-04T05:41:22;-1.30;99.90
11538;DHT22;50159;49.426;11.182;2023-03-04T05:43:49;-1.30;99.90
11538;DHT22;50159;49.426;11.182;2023-03-04T05:46:17;-1.30;99.90
11538;DHT22;50159;49.426;11.182;2023-03-04T05:48:51;-1.30;99.90
11538;DHT22;50159;49.426;11.182;2023-03-04T05:51:19;-1.30;99.90
11538;DHT22;50159;49.426;11.182;2023-03-04T05:53:48;-1.20;99.90
11538;DHT22;50159;49.426;11.182;2023-03-04T05:56:17;-1.20;99.90
11538;DHT22;50159;49.426;11.182;2023-03-04T05:58:45;-1.20;99.90
11538;DHT22;50159;49.426;11.182;2023-03-04T06:01:13;-1.20;99.90
11538;DHT22;50159;49.426;11.182;2023-03-04T06:03:41;-1.20;99.90
11538;DHT22;50159;49.426;11.182;2023-03-04T06:06:10;-1.10;99.90
11538;DHT22;50159;49.426;11.182;2023-03-04T06:08:37;-1.10;99.90
11538;DHT22;50159;49.426;11.182;2023-03-04T06:11:04;-1.00;99.90
11538;DHT22;50159;49.426;11.182;2023-03-04T06:13:32;-1.00;99.90
11538;DHT22;50159;49.426;11.182;2023-03-04T06:16:01;-1.00;99.90
11538;DHT22;50159;49.426;11.182;2023-03-04T06:18:29;-1.10;99.90
11538;DHT22;50159;49.426;11.182;2023-03-04T06:20:59;-1.10;99.90
11538;DHT22;50159;49.426;11.182;2023-03-04T06:23:28;-1.20;99.90
11538;DHT22;50159;49.426;11.182;2023-03-04T06:25:57;-1.20;99.90
11538;DHT22;50159;49.426;11.182;2023-03-04T06:28:25;-1.30;99.90
11538;DHT22;50159;49.426;11.182;2023-03-04T06:30:54;-1.30;99.90
11538;DHT22;50159;49.426;11.182;2023-03-04T06:33:22;-1.20;99.90
11538;DHT22;50159;49.426;11.182;2023-03-04T06:35:53;-1.30;99.90
11538;DHT22;50159;49.426;11.182;2023-03-04T06:38:21;-1.20;99.90
11538;DHT22;50159;49.426;11.182;2023-03-04T06:40:48;-1.20;99.90
11538;DHT22;50159;49.426;11.182;2023-03-04T06:43:15;-1.20;99.90
11538;DHT22;50159;49.426;11.182;2023-03-04T06:45:42;-1.10;99.90
11538;DHT22;50159;49.426;11.182;2023-03-04T06:48:09;-1.10;99.90
11538;DHT22;50159;49.426;11.182;2023-03-04T06:50:38;-1.10;99.90
11538;DHT22;50159;49.426;11.182;2023-03-04T06:53:05;-1.10;99.90
11538;DHT22;50159;49.426;11.182;2023-03-04T06:55:32;-1.10;99.90
11538;DHT22;50159;49.426;11.182;2023-03-04T06:57:59;-1.20;99.90
11538;DHT22;50159;49.426;11.182;2023-03-04T07:00:25;-1.20;99.90
11538;DHT22;50159;49.426;11.182;2023-03-04T07:02:52;-1.20;99.90
11538;DHT22;50159;49.426;11.182;2023-03-04T07:05:20;-1.20;99.90
11538;DHT22;50159;49.426;11.182;2023-03-04T07:07:47;-1.20;99.90
11538;DHT22;50159;49.426;11.182;2023-03-04T07:10:18;-1.20;99.90
11538;DHT22;50159;49.426;11.182;2023-03-04T07:12:45;-1.10;99.90
11538;DHT22;50159;49.426;11.182;2023-03-04T07:15:12;-1.10;99.90
11538;DHT22;50159;49.426;11.182;2023-03-04T07:17:39;-1.10;99.90
11538;DHT22;50159;49.426;11.182;2023-03-04T07:20:07;-1.10;99.90
11538;DHT22;50159;49.426;11.182;2023-03-04T07:22:34;-1.00;99.90
11538;DHT22;50159;49.426;11.182;2023-03-04T07:25:01;-1.00;99.90
11538;DHT22;50159;49.426;11.182;2023-03-04T07:27:27;-1.00;99.90
11538;DHT22;50159;49.426;11.182;2023-03-04T07:29:54;-1.00;99.90
11538;DHT22;50159;49.426;11.182;2023-03-04T07:32:21;-0.90;99.90
11538;DHT22;50159;49.426;11.182;2023-03-04T07:34:48;-0.90;99.90
11538;DHT22;50159;49.426;11.182;2023-03-04T07:37:14;-0.80;99.90
11538;DHT22;50159;49.426;11.182;2023-03-04T07:39:41;-0.80;99.90
11538;DHT22;50159;49.426;11.182;2023-03-04T07:42:08;-0.80;99.90
11538;DHT22;50159;49.426;11.182;2023-03-04T07:44:35;-0.90;99.90
11538;DHT22;50159;49.426;11.182;2023-03-04T07:47:02;-0.90;99.90
11538;DHT22;50159;49.426;11.182;2023-03-04T07:49:28;-0.80;99.90
11538;DHT22;50159;49.426;11.182;2023-03-04T07:51:55;-0.80;99.90
11538;DHT22;50159;49.426;11.182;2023-03-04T07:54:22;-0.70;99.90
11538;DHT22;50159;49.426;11.182;2023-03-04T07:56:49;-0.60;99.90
11538;DHT22;50159;49.426;11.182;2023-03-04T07:59:15;-0.60;99.90
11538;DHT22;50159;49.426;11.182;2023-03-04T08:01:42;-0.50;99.90
11538;DHT22;50159;49.426;11.182;2023-03-04T08:04:11;-0.50;99.90
11538;DHT22;50159;49.426;11.182;2023-03-04T08:06:40;-0.40;99.90
11538;DHT22;50159;49.426;11.182;2023-03-04T08:09:07;-0.30;99.90
11538;DHT22;50159;49.426;11.182;2023-03-04T08:11:37;-0.30;99.90
11538;DHT22;50159;49.426;11.182;2023-03-04T08:14:04;-0.30;99.90
11538;DHT22;50159;49.426;11.182;2023-03-04T08:16:32;-0.30;99.90
11538;DHT22;50159;49.426;11.182;2023-03-04T08:19:01;-0.30;99.90
11538;DHT22;50159;49.426;11.182;2023-03-04T08:21:29;-0.20;99.90
11538;DHT22;50159;49.426;11.182;2023-03-04T08:23:57;-0.10;99.90
11538;DHT22;50159;49.426;11.182;2023-03-04T08:26:33;0.00;99.90
11538;DHT22;50159;49.426;11.182;2023-03-04T08:29:09;0.00;99.90
11538;DHT22;50159;49.426;11.182;2023-03-04T08:31:38;0.00;99.90
11538;DHT22;50159;49.426;11.182;2023-03-04T08:34:05;0.10;99.90
11538;DHT22;50159;49.426;11.182;2023-03-04T08:36:33;0.10;99.90
11538;DHT22;50159;49.426;11.182;2023-03-04T08:39:01;0.20;99.90
11538;DHT22;50159;49.426;11.182;2023-03-04T08:41:29;0.20;99.90
11538;DHT22;50159;49.426;11.182;2023-03-04T08:43:55;0.20;99.90
11538;DHT22;50159;49.426;11.182;2023-03-04T08:46:22;0.20;99.90
11538;DHT22;50159;49.426;11.182;2023-03-04T08:48:49;0.30;99.90
11538;DHT22;50159;49.426;11.182;2023-03-04T08:51:16;0.30;99.90
11538;DHT22;50159;49.426;11.182;2023-03-04T08:53:43;0.30;99.90
11538;DHT22;50159;49.426;11.182;2023-03-04T08:56:11;0.40;99.90
11538;DHT22;50159;49.426;11.182;2023-03-04T08:58:39;0.40;99.90
11538;DHT22;50159;49.426;11.182;2023-03-04T09:01:11;0.50;99.90
11538;DHT22;50159;49.426;11.182;2023-03-04T09:03:39;0.60;99.90
11538;DHT22;50159;49.426;11.182;2023-03-04T09:06:07;0.70;99.90
11538;DHT22;50159;49.426;11.182;2023-03-04T09:08:35;0.80;99.90
11538;DHT22;50159;49.426;11.182;2023-03-04T09:11:02;0.80;99.90
11538;DHT22;50159;49.426;11.182;2023-03-04T09:13:30;0.80;99.90
11538;DHT22;50159;49.426;11.182;2023-03-04T09:15:58;0.90;99.90
11538;DHT22;50159;49.426;11.182;2023-03-04T09:18:25;1.00;99.90
11538;DHT22;50159;49.426;11.182;2023-03-04T09:20:53;1.00;99.90
11538;DHT22;50159;49.426;11.182;2023-03-04T09:23:21;1.10;99.90
11538;DHT22;50159;49.426;11.182;2023-03-04T09:25:48;1.10;99.90
11538;DHT22;50159;49.426;11.182;2023-03-04T09:28:15;1.10;99.90
11538;DHT22;50159;49.426;11.182;2023-03-04T09:30:43;1.10;99.90
11538;DHT22;50159;49.426;11.182;2023-03-04T09:33:11;1.10;99.90
11538;DHT22;50159;49.426;11.182;2023-03-04T09:35:38;1.10;99.90
11538;DHT22;50159;49.426;11.182;2023-03-04T09:38:05;1.20;99.90
11538;DHT22;50159;49.426;11.182;2023-03-04T09:43:22;1.30;99.90
11538;DHT22;50159;49.426;11.182;2023-03-04T09:45:58;1.30;99.90
11538;DHT22;50159;49.426;11.182;2023-03-04T09:48:39;1.40;99.90
11538;DHT22;50159;49.426;11.182;2023-03-04T09:54:13;1.60;99.90
11538;DHT22;50159;49.426;11.182;2023-03-04T10:00:04;1.50;99.90
11538;DHT22;50159;49.426;11.182;2023-03-04T10:05:33;1.50;99.90
11538;DHT22;50159;49.426;11.182;2023-03-04T10:08:35;1.60;99.90
11538;DHT22;50159;49.426;11.182;2023-03-04T10:11:45;1.50;99.90
11538;DHT22;50159;49.426;11.182;2023-03-04T10:22:32;1.70;99.90
11538;DHT22;50159;49.426;11.182;2023-03-04T10:25:18;1.70;99.90
11538;DHT22;50159;49.426;11.182;2023-03-04T10:27:59;1.70;99.90
11538;DHT22;50159;49.426;11.182;2023-03-04T10:30:54;1.90;99.90
11538;DHT22;50159;49.426;11.182;2023-03-04T10:33:36;2.00;99.90
11538;DHT22;50159;49.426;11.182;2023-03-04T10:36:31;2.10;99.90
11538;DHT22;50159;49.426;11.182;2023-03-04T10:39:11;2.10;99.90
11538;DHT22;50159;49.426;11.182;2023-03-04T10:41:44;2.10;99.90
11538;DHT22;50159;49.426;11.182;2023-03-04T10:44:24;2.20;99.90
11538;DHT22;50159;49.426;11.182;2023-03-04T10:46:53;2.30;99.90
11538;DHT22;50159;49.426;11.182;2023-03-04T10:49:23;2.30;99.90
11538;DHT22;50159;49.426;11.182;2023-03-04T10:51:54;2.30;99.90
11538;DHT22;50159;49.426;11.182;2023-03-04T10:54:46;2.30;99.90
11538;DHT22;50159;49.426;11.182;2023-03-04T10:57:23;2.40;99.90
11538;DHT22;50159;49.426;11.182;2023-03-04T11:00:18;2.40;99.90
11538;DHT22;50159;49.426;11.182;2023-03-04T11:02:49;2.40;99.90
11538;DHT22;50159;49.426;11.182;2023-03-04T11:05:21;2.50;99.90
11538;DHT22;50159;49.426;11.182;2023-03-04T11:07:59;2.50;99.70
11538;DHT22;50159;49.426;11.182;2023-03-04T11:10:39;2.40;99.20
11538;DHT22;50159;49.426;11.182;2023-03-04T11:13:15;1.90;98.80
11538;DHT22;50159;49.426;11.182;2023-03-04T11:16:04;2.40;98.50
11538;DHT22;50159;49.426;11.182;2023-03-04T11:18:54;2.40;98.80
11538;DHT22;50159;49.426;11.182;2023-03-04T11:21:29;2.40;98.80
11538;DHT22;50159;49.426;11.182;2023-03-04T11:24:03;2.50;98.40
11538;DHT22;50159;49.426;11.182;2023-03-04T11:27:04;2.50;98.10
11538;DHT22;50159;49.426;11.182;2023-03-04T11:29:50;2.50;97.90
11538;DHT22;50159;49.426;11.182;2023-03-04T11:32:32;2.60;97.80
11538;DHT22;50159;49.426;11.182;2023-03-04T11:35:37;2.60;97.70
11538;DHT22;50159;49.426;11.182;2023-03-04T11:38:19;2.60;97.30
11538;DHT22;50159;49.426;11.182;2023-03-04T11:41:12;2.60;97.30
11538;DHT22;50159;49.426;11.182;2023-03-04T11:43:44;2.60;96.50
11538;DHT22;50159;49.426;11.182;2023-03-04T11:49:10;2.60;97.00
11538;DHT22;50159;49.426;11.182;2023-03-04T12:01:08;2.60;96.40
11538;DHT22;50159;49.426;11.182;2023-03-04T12:09:55;2.60;96.40
11538;DHT22;50159;49.426;11.182;2023-03-04T12:19:21;2.70;95.50
11538;DHT22;50159;49.426;11.182;2023-03-04T12:30:39;2.80;94.60
11538;DHT22;50159;49.426;11.182;2023-03-04T12:33:26;2.80;94.50
11538;DHT22;50159;49.426;11.182;2023-03-04T12:42:35;2.70;94.40
11538;DHT22;50159;49.426;11.182;2023-03-04T12:51:09;2.70;94.50
11538;DHT22;50159;49.426;11.182;2023-03-04T12:56:56;2.70;94.70
11538;DHT22;50159;49.426;11.182;2023-03-04T12:59:29;2.70;94.60
11538;DHT22;50159;49.426;11.182;2023-03-04T13:02:34;2.80;94.40
11538;DHT22;50159;49.426;11.182;2023-03-04T13:05:25;2.80;94.10
11538;DHT22;50159;49.426;11.182;2023-03-04T13:16:44;2.80;93.70
11538;DHT22;50159;49.426;11.182;2023-03-04T13:41:13;3.00;93.80
11538;DHT22;50159;49.426;11.182;2023-03-04T13:43:57;3.00;93.70
11538;DHT22;50159;49.426;11.182;2023-03-04T13:46:39;3.00;93.60
11538;DHT22;50159;49.426;11.182;2023-03-04T13:49:20;3.00;93.50
11538;DHT22;50159;49.426;11.182;2023-03-04T13:51:50;3.00;93.40
11538;DHT22;50159;49.426;11.182;2023-03-04T13:56:46;3.10;93.40
11538;DHT22;50159;49.426;11.182;2023-03-04T14:02:18;3.10;93.30
11538;DHT22;50159;49.426;11.182;2023-03-04T14:04:58;3.20;93.10
11538;DHT22;50159;49.426;11.182;2023-03-04T14:07:34;3.20;93.20
11538;DHT22;50159;49.426;11.182;2023-03-04T14:12:51;3.10;93.00
11538;DHT22;50159;49.426;11.182;2023-03-04T14:17:55;3.20;93.30
11538;DHT22;50159;49.426;11.182;2023-03-04T14:20:28;3.30;93.50
11538;DHT22;50159;49.426;11.182;2023-03-04T14:22:58;3.30;93.50
11538;DHT22;50159;49.426;11.182;2023-03-04T14:25:34;3.30;93.40
11538;DHT22;50159;49.426;11.182;2023-03-04T14:30:34;3.30;93.40
11538;DHT22;50159;49.426;11.182;2023-03-04T14:33:14;3.20;93.30
11538;DHT22;50159;49.426;11.182;2023-03-04T14:35:50;3.10;93.70
11538;DHT22;50159;49.426;11.182;2023-03-04T14:43:45;2.90;94.80
11538;DHT22;50159;49.426;11.182;2023-03-04T14:46:21;3.00;95.10
11538;DHT22;50159;49.426;11.182;2023-03-04T14:48:54;2.90;94.90
11538;DHT22;50159;49.426;11.182;2023-03-04T14:51:37;2.90;95.30
11538;DHT22;50159;49.426;11.182;2023-03-04T14:54:35;2.90;95.40
11538;DHT22;50159;49.426;11.182;2023-03-04T14:57:24;2.80;95.70
11538;DHT22;50159;49.426;11.182;2023-03-04T14:59:55;2.80;95.90
11538;DHT22;50159;49.426;11.182;2023-03-04T15:02:39;2.80;96.20
11538;DHT22;50159;49.426;11.182;2023-03-04T15:05:10;2.70;96.30
11538;DHT22;50159;49.426;11.182;2023-03-04T15:08:03;2.70;96.50
11538;DHT22;50159;49.426;11.182;2023-03-04T15:10:59;2.70;96.90
11538;DHT22;50159;49.426;11.182;2023-03-04T15:13:42;2.70;97.10
11538;DHT22;50159;49.426;11.182;2023-03-04T15:16:10;3.10;97.20
11538;DHT22;50159;49.426;11.182;2023-03-04T15:18:57;2.70;97.20
11538;DHT22;50159;49.426;11.182;2023-03-04T15:23:57;2.80;97.30
11538;DHT22;50159;49.426;11.182;2023-03-04T15:26:24;2.80;97.20
11538;DHT22;50159;49.426;11.182;2023-03-04T15:28:52;2.80;97.20
11538;DHT22;50159;49.426;11.182;2023-03-04T15:31:21;2.80;97.50
11538;DHT22;50159;49.426;11.182;2023-03-04T15:33:50;2.80;97.50
11538;DHT22;50159;49.426;11.182;2023-03-04T15:36:20;2.80;97.50
11538;DHT22;50159;49.426;11.182;2023-03-04T15:38:49;2.80;97.60
11538;DHT22;50159;49.426;11.182;2023-03-04T15:41:23;2.70;97.40
11538;DHT22;50159;49.426;11.182;2023-03-04T15:43:52;2.70;97.60
11538;DHT22;50159;49.426;11.182;2023-03-04T15:46:20;2.70;97.90
11538;DHT22;50159;49.426;11.182;2023-03-04T15:48:47;2.60;98.10
11538;DHT22;50159;49.426;11.182;2023-03-04T15:51:19;2.70;98.20
11538;DHT22;50159;49.426;11.182;2023-03-04T15:53:52;2.70;98.20
11538;DHT22;50159;49.426;11.182;2023-03-04T15:56:29;2.60;98.20
11538;DHT22;50159;49.426;11.182;2023-03-04T15:59:02;2.70;98.40
11538;DHT22;50159;49.426;11.182;2023-03-04T16:01:31;2.60;98.30
11538;DHT22;50159;49.426;11.182;2023-03-04T16:03:58;2.60;98.40
11538;DHT22;50159;49.426;11.182;2023-03-04T16:06:28;2.60;98.50
11538;DHT22;50159;49.426;11.182;2023-03-04T16:08:58;2.60;98.70
11538;DHT22;50159;49.426;11.182;2023-03-04T16:11:28;2.60;98.80
11538;DHT22;50159;49.426;11.182;2023-03-04T16:13:58;2.50;99.00
11538;DHT22;50159;49.426;11.182;2023-03-04T16:16:24;2.60;99.20
11538;DHT22;50159;49.426;11.182;2023-03-04T16:18:51;2.50;99.20
11538;DHT22;50159;49.426;11.182;2023-03-04T16:21:19;2.50;99.30
11538;DHT22;50159;49.426;11.182;2023-03-04T16:23:49;2.50;99.40
11538;DHT22;50159;49.426;11.182;2023-03-04T16:26:20;2.50;99.60
11538;DHT22;50159;49.426;11.182;2023-03-04T16:28:49;2.50;99.60
11538;DHT22;50159;49.426;11.182;2023-03-04T16:31:17;2.50;99.60
11538;DHT22;50159;49.426;11.182;2023-03-04T16:33:45;2.50;99.60
11538;DHT22;50159;49.426;11.182;2023-03-04T16:36:18;2.50;99.60
11538;DHT22;50159;49.426;11.182;2023-03-04T16:38:48;2.40;99.70
11538;DHT22;50159;49.426;11.182;2023-03-04T16:41:19;2.40;99.80
11538;DHT22;50159;49.426;11.182;2023-03-04T16:43:50;2.40;99.90
11538;DHT22;50159;49.426;11.182;2023-03-04T16:46:17;2.40;99.80
11538;DHT22;50159;49.426;11.182;2023-03-04T16:48:46;2.40;99.80
11538;DHT22;50159;49.426;11.182;2023-03-04T16:51:15;2.40;99.90
11538;DHT22;50159;49.426;11.182;2023-03-04T16:53:54;2.40;99.90
11538;DHT22;50159;49.426;11.182;2023-03-04T16:56:23;2.40;99.90
11538;DHT22;50159;49.426;11.182;2023-03-04T16:58:50;2.40;99.90
11538;DHT22;50159;49.426;11.182;2023-03-04T17:01:27;2.40;99.90
11538;DHT22;50159;49.426;11.182;2023-03-04T17:03:55;2.40;99.90
11538;DHT22;50159;49.426;11.182;2023-03-04T17:06:22;2.40;99.90
11538;DHT22;50159;49.426;11.182;2023-03-04T17:08:49;2.40;99.90
11538;DHT22;50159;49.426;11.182;2023-03-04T17:11:19;2.40;99.90
11538;DHT22;50159;49.426;11.182;2023-03-04T17:13:49;2.40;99.90
11538;DHT22;50159;49.426;11.182;2023-03-04T17:16:17;2.40;99.90
11538;DHT22;50159;49.426;11.182;2023-03-04T17:18:44;2.40;99.90
11538;DHT22;50159;49.426;11.182;2023-03-04T17:21:14;2.40;99.90
11538;DHT22;50159;49.426;11.182;2023-03-04T17:23:43;2.40;99.90
11538;DHT22;50159;49.426;11.182;2023-03-04T17:26:10;2.40;99.90
11538;DHT22;50159;49.426;11.182;2023-03-04T17:28:37;2.40;99.90
11538;DHT22;50159;49.426;11.182;2023-03-04T17:31:11;2.30;99.90
11538;DHT22;50159;49.426;11.182;2023-03-04T17:33:43;2.30;99.90
11538;DHT22;50159;49.426;11.182;2023-03-04T17:36:11;2.30;99.90
11538;DHT22;50159;49.426;11.182;2023-03-04T17:38:40;2.30;99.90
11538;DHT22;50159;49.426;11.182;2023-03-04T17:41:11;2.30;99.90
11538;DHT22;50159;49.426;11.182;2023-03-04T17:43:46;2.30;99.90
11538;DHT22;50159;49.426;11.182;2023-03-04T17:46:17;2.30;99.90
11538;DHT22;50159;49.426;11.182;2023-03-04T17:48:46;2.30;99.90
11538;DHT22;50159;49.426;11.182;2023-03-04T17:51:14;2.30;99.90
11538;DHT22;50159;49.426;11.182;2023-03-04T17:53:41;2.40;99.90